createdAt,value
2022-07-30T00:01:35.991Z,101380.63
2022-07-30T00:04:04.018Z,101380.75
2022-07-30T00:06:32.704Z,101375.00
2022-07-30T00:08:59.978Z,101375.03
2022-07-30T00:11:28.129Z,101381.31
2022-07-30T00:13:56.028Z,101378.09
2022-07-30T00:16:23.413Z,101372.47
2022-07-30T00:18:50.547Z,101373.44
2022-07-30T00:21:34.608Z,101364.66
2022-07-30T00:24:04.609Z,101365.13
2022-07-30T00:26:31.886Z,101363.03
2022-07-30T00:28:58.962Z,101368.44
2022-07-30T00:31:26.162Z,101357.78
2022-07-30T00:33:53.231Z,101354.94
2022-07-30T00:36:20.403Z,101352.56
2022-07-30T00:38:47.523Z,101347.78
2022-07-30T00:41:15.523Z,101358.16
2022-07-30T00:43:43.717Z,101359.56
2022-07-30T00:46:11.673Z,101350.16
2022-07-30T00:48:38.787Z,101348.00
2022-07-30T00:51:05.959Z,101333.22
2022-07-30T00:53:34.704Z,101325.19
2022-07-30T00:56:03.023Z,101314.59
2022-07-30T00:58:31.031Z,101296.31
2022-07-30T01:00:58.374Z,101307.13
2022-07-30T01:03:25.352Z,101308.59
2022-07-30T01:05:52.629Z,101312.97
2022-07-30T01:08:19.628Z,101310.34
2022-07-30T01:10:46.828Z,101319.00
2022-07-30T01:13:14.303Z,101306.19
2022-07-30T01:15:42.015Z,101308.78
2022-07-30T01:18:12.774Z,101308.72
2022-07-30T01:20:52.124Z,101310.06
2022-07-30T01:23:32.051Z,101305.44
2022-07-30T01:26:02.604Z,101305.84
2022-07-30T01:28:35.508Z,101301.97
2022-07-30T01:31:05.918Z,101298.47
2022-07-30T01:33:37.652Z,101299.47
2022-07-30T01:36:08.185Z,101306.72
2022-07-30T01:38:38.673Z,101305.19
2022-07-30T01:41:07.047Z,101302.75
2022-07-30T01:43:36.774Z,101306.06
2022-07-30T01:46:06.123Z,101298.78
2022-07-30T01:48:40.612Z,101309.44
2022-07-30T01:51:09.052Z,101297.59
2022-07-30T01:53:41.684Z,101293.41
2022-07-30T01:56:12.836Z,101298.16
2022-07-30T01:58:46.586Z,101296.41
2022-07-30T02:01:13.857Z,101299.78
2022-07-30T02:03:42.666Z,101292.66
2022-07-30T02:06:19.690Z,101285.75
2022-07-30T02:08:58.090Z,101287.91
2022-07-30T02:11:44.065Z,101287.81
2022-07-30T02:14:26.879Z,101299.34
2022-07-30T02:16:59.196Z,101288.19
2022-07-30T02:19:36.783Z,101306.78
2022-07-30T02:22:16.112Z,101316.41
2022-07-30T02:24:44.798Z,101311.88
2022-07-30T02:27:38.311Z,101322.06
2022-07-30T02:30:06.646Z,101308.44
2022-07-30T02:32:42.577Z,101305.91
2022-07-30T02:35:19.870Z,101289.13
2022-07-30T02:37:50.878Z,101292.72
2022-07-30T02:40:22.780Z,101293.41
2022-07-30T02:42:53.275Z,101293.28
2022-07-30T02:45:22.603Z,101277.59
2022-07-30T02:48:04.899Z,101280.88
2022-07-30T02:50:32.671Z,101285.34
2022-07-30T02:53:02.714Z,101288.84
2022-07-30T02:55:33.477Z,101295.78
2022-07-30T02:58:04.202Z,101294.97
2022-07-30T03:00:32.253Z,101292.84
2022-07-30T03:03:00.551Z,101289.50
2022-07-30T03:05:29.410Z,101294.34
2022-07-30T03:07:59.848Z,101292.97
2022-07-30T03:10:28.842Z,101287.91
2022-07-30T03:12:57.202Z,101291.03
2022-07-30T03:15:24.576Z,101268.94
2022-07-30T03:17:55.569Z,101281.41
2022-07-30T03:20:29.646Z,101274.97
2022-07-30T03:23:00.077Z,101274.13
2022-07-30T03:25:28.902Z,101281.09
2022-07-30T03:28:15.570Z,101281.19
2022-07-30T03:30:44.171Z,101281.94
2022-07-30T03:33:13.139Z,101277.03
2022-07-30T03:35:43.674Z,101281.34
2022-07-30T03:38:15.632Z,101272.22
2022-07-30T03:40:44.391Z,101265.81
2022-07-30T03:43:18.305Z,101261.13
2022-07-30T03:46:03.438Z,101254.47
2022-07-30T03:48:31.579Z,101265.78
2022-07-30T03:51:01.435Z,101261.72
2022-07-30T03:53:29.361Z,101265.66
2022-07-30T03:55:56.887Z,101267.38
2022-07-30T03:58:24.128Z,101274.81
2022-07-30T04:00:51.962Z,101275.50
2022-07-30T04:03:27.768Z,101273.75
2022-07-30T04:05:55.121Z,101268.22
2022-07-30T04:08:22.643Z,101256.84
2022-07-30T04:10:51.450Z,101254.38
2022-07-30T04:13:18.755Z,101259.88
2022-07-30T04:16:39.906Z,101255.31
2022-07-30T04:19:12.562Z,101253.28
2022-07-30T04:21:41.975Z,101248.66
2022-07-30T04:24:11.379Z,101243.91
2022-07-30T04:26:39.210Z,101240.34
2022-07-30T04:29:07.602Z,101230.38
2022-07-30T04:31:40.690Z,101231.69
2022-07-30T04:34:08.573Z,101225.72
2022-07-30T04:36:38.880Z,101234.31
2022-07-30T04:39:06.186Z,101234.13
2022-07-30T04:41:48.720Z,101228.78
2022-07-30T04:44:19.106Z,101230.38
2022-07-30T04:46:47.956Z,101223.31
2022-07-30T04:49:18.322Z,101229.59
2022-07-30T04:51:46.879Z,101223.13
2022-07-30T04:54:16.362Z,101225.31
2022-07-30T04:56:52.626Z,101227.06
2022-07-30T04:59:25.127Z,101234.47
2022-07-30T05:01:53.810Z,101229.19
2022-07-30T05:04:24.705Z,101224.09
2022-07-30T05:06:53.772Z,101232.06
2022-07-30T05:09:22.375Z,101233.50
2022-07-30T05:11:53.900Z,101232.78
2022-07-30T05:14:22.380Z,101234.91
2022-07-30T05:16:50.720Z,101233.75
2022-07-30T05:19:19.896Z,101235.16
2022-07-30T05:21:46.948Z,101234.47
2022-07-30T05:24:14.581Z,101235.19
2022-07-30T05:26:42.333Z,101240.16
2022-07-30T05:29:09.739Z,101246.31
2022-07-30T05:31:47.351Z,101239.53
2022-07-30T05:34:15.617Z,101238.09
2022-07-30T05:36:44.675Z,101243.97
2022-07-30T05:39:12.020Z,101250.94
2022-07-30T05:41:39.115Z,101249.06
2022-07-30T05:44:06.409Z,101251.25
2022-07-30T05:46:33.905Z,101250.91
2022-07-30T05:49:01.147Z,101241.19
2022-07-30T05:51:29.461Z,101248.22
2022-07-30T05:53:56.826Z,101234.84
2022-07-30T05:56:24.049Z,101227.63
2022-07-30T05:58:51.161Z,101232.78
2022-07-30T06:01:18.383Z,101230.56
2022-07-30T06:03:45.419Z,101229.72
2022-07-30T06:06:12.924Z,101232.34
2022-07-30T06:08:40.208Z,101240.47
2022-07-30T06:11:08.944Z,101240.19
2022-07-30T06:13:37.587Z,101232.75
2022-07-30T06:16:05.383Z,101237.41
2022-07-30T06:18:32.935Z,101232.91
2022-07-30T06:21:00.223Z,101240.41
2022-07-30T06:23:27.471Z,101241.38
2022-07-30T06:25:54.663Z,101228.66
2022-07-30T06:28:37.061Z,101229.09
2022-07-30T06:31:06.666Z,101230.34
2022-07-30T06:33:34.547Z,101231.31
2022-07-30T06:36:01.931Z,101225.56
2022-07-30T06:38:29.255Z,101215.31
2022-07-30T06:41:02.026Z,101222.44
2022-07-30T06:43:33.412Z,101226.41
2022-07-30T06:46:01.149Z,101221.00
2022-07-30T06:48:31.790Z,101223.34
2022-07-30T06:50:58.989Z,101218.50
2022-07-30T06:53:26.044Z,101224.19
2022-07-30T06:55:56.806Z,101226.94
2022-07-30T06:58:25.951Z,101223.66
2022-07-30T07:00:53.503Z,101224.38
2022-07-30T07:03:21.429Z,101225.66
2022-07-30T07:05:48.733Z,101227.47
2022-07-30T07:08:15.812Z,101221.56
2022-07-30T07:10:43.223Z,101217.50
2022-07-30T07:13:10.316Z,101229.47
2022-07-30T07:15:37.782Z,101222.22
2022-07-30T07:18:06.487Z,101212.09
2022-07-30T07:20:35.018Z,101216.44
2022-07-30T07:23:08.871Z,101211.88
2022-07-30T07:25:36.785Z,101205.59
2022-07-30T07:28:11.771Z,101204.84
2022-07-30T07:30:44.271Z,101213.16
2022-07-30T07:33:13.160Z,101199.44
2022-07-30T07:35:49.239Z,101198.09
2022-07-30T07:38:18.579Z,101191.03
2022-07-30T07:40:47.401Z,101187.00
2022-07-30T07:43:15.746Z,101188.47
2022-07-30T07:45:44.309Z,101192.25
2022-07-30T07:48:12.183Z,101181.34
2022-07-30T07:50:39.981Z,101194.38
2022-07-30T07:53:07.337Z,101185.50
2022-07-30T07:55:34.449Z,101185.06
2022-07-30T07:58:02.178Z,101184.75
2022-07-30T08:00:29.578Z,101187.94
2022-07-30T08:02:56.702Z,101184.22
2022-07-30T08:05:24.207Z,101183.91
2022-07-30T08:07:51.311Z,101173.38
2022-07-30T08:10:19.154Z,101179.56
2022-07-30T08:12:46.169Z,101183.38
2022-07-30T08:15:13.638Z,101179.16
2022-07-30T08:17:45.459Z,101176.00
2022-07-30T08:20:14.478Z,101177.84
2022-07-30T08:22:42.048Z,101176.50
2022-07-30T08:25:10.080Z,101164.56
2022-07-30T08:27:37.354Z,101168.56
2022-07-30T08:30:06.483Z,101164.44
2022-07-30T08:32:33.984Z,101163.25
2022-07-30T08:35:01.435Z,101162.38
2022-07-30T08:37:29.121Z,101158.19
2022-07-30T08:39:56.520Z,101160.81
2022-07-30T08:42:24.569Z,101158.47
2022-07-30T08:44:54.769Z,101161.31
2022-07-30T08:47:31.211Z,101156.34
2022-07-30T08:50:04.660Z,101151.59
2022-07-30T08:52:38.725Z,101151.97
2022-07-30T08:55:06.786Z,101143.50
2022-07-30T08:57:37.870Z,101145.53
2022-07-30T09:00:07.222Z,101144.81
2022-07-30T09:02:34.758Z,101144.41
2022-07-30T09:05:05.595Z,101144.84
2022-07-30T09:07:36.547Z,101142.56
2022-07-30T09:10:08.969Z,101141.84
2022-07-30T09:12:42.956Z,101141.31
2022-07-30T09:15:20.494Z,101135.53
2022-07-30T09:18:00.719Z,101134.50
2022-07-30T09:20:35.015Z,101134.75
2022-07-30T09:23:05.642Z,101140.22
2022-07-30T09:25:43.848Z,101127.97
2022-07-30T09:28:16.314Z,101132.53
2022-07-30T09:30:48.286Z,101132.28
2022-07-30T09:33:30.554Z,101127.59
2022-07-30T09:35:57.727Z,101137.69
2022-07-30T09:38:26.228Z,101126.69
2022-07-30T09:40:57.795Z,101129.75
2022-07-30T09:43:28.043Z,101128.03
2022-07-30T09:45:58.927Z,101125.28
2022-07-30T09:48:28.392Z,101108.59
2022-07-30T09:50:57.386Z,101108.84
2022-07-30T09:53:25.272Z,101111.97
2022-07-30T09:55:52.746Z,101109.78
2022-07-30T09:58:27.047Z,101120.56
2022-07-30T10:01:01.468Z,101109.31
2022-07-30T10:03:33.711Z,101105.75
2022-07-30T10:06:11.669Z,101116.28
2022-07-30T10:08:48.124Z,101117.88
2022-07-30T10:11:23.596Z,101113.63
2022-07-30T10:13:57.899Z,101103.72
2022-07-30T10:16:29.723Z,101110.34
2022-07-30T10:19:00.250Z,101100.72
2022-07-30T10:21:29.104Z,101114.16
2022-07-30T10:24:00.692Z,101111.66
2022-07-30T10:26:30.430Z,101118.44
2022-07-30T10:28:59.282Z,101113.41
2022-07-30T10:31:48.443Z,101110.09
2022-07-30T10:34:23.792Z,101108.09
2022-07-30T10:37:00.727Z,101114.66
2022-07-30T10:39:39.541Z,101101.59
2022-07-30T10:42:46.319Z,101108.09
2022-07-30T10:45:26.275Z,101111.94
2022-07-30T10:47:55.392Z,101105.84
2022-07-30T10:50:27.804Z,101106.94
2022-07-30T10:53:01.320Z,101103.09
2022-07-30T10:55:38.774Z,101105.91
2022-07-30T10:58:14.359Z,101101.75
2022-07-30T11:00:51.954Z,101108.22
2022-07-30T11:03:38.786Z,101099.53
2022-07-30T11:06:15.454Z,101105.41
2022-07-30T11:08:48.626Z,101098.84
2022-07-30T11:12:01.431Z,101101.44
2022-07-30T11:14:13.010Z,101111.69
2022-07-30T11:16:40.223Z,101097.31
2022-07-30T11:19:55.560Z,101096.44
2022-07-30T11:22:31.435Z,101099.34
2022-07-30T11:25:00.457Z,101091.13
2022-07-30T11:27:38.519Z,101088.03
2022-07-30T11:30:18.162Z,101092.34
2022-07-30T11:32:57.175Z,101093.47
2022-07-30T11:35:34.374Z,101089.38
2022-07-30T11:38:19.748Z,101098.72
2022-07-30T11:40:49.439Z,101084.06
2022-07-30T11:43:35.765Z,101089.41
2022-07-30T11:46:10.993Z,101092.97
2022-07-30T11:49:05.770Z,101084.75
2022-07-30T11:51:46.745Z,101083.34
2022-07-30T11:54:15.478Z,101088.38
2022-07-30T11:57:02.326Z,101095.44
2022-07-30T11:59:31.564Z,101091.88
2022-07-30T12:02:01.746Z,101094.72
2022-07-30T12:04:29.803Z,101085.78
2022-07-30T12:07:01.810Z,101087.81
2022-07-30T12:09:29.376Z,101093.91
2022-07-30T12:11:57.599Z,101076.59
2022-07-30T12:14:25.074Z,101084.69
2022-07-30T12:16:54.122Z,101085.50
2022-07-30T12:19:21.781Z,101062.13
2022-07-30T12:21:53.781Z,101072.94
2022-07-30T12:24:26.754Z,101075.59
2022-07-30T12:27:06.113Z,101081.06
2022-07-30T12:29:37.529Z,101078.34
2022-07-30T12:32:05.198Z,101074.81
2022-07-30T12:34:33.860Z,101070.72
2022-07-30T12:37:10.167Z,101064.97
2022-07-30T12:39:37.595Z,101067.16
2022-07-30T12:42:05.051Z,101066.63
2022-07-30T12:44:46.032Z,101066.59
2022-07-30T12:47:26.212Z,101067.63
2022-07-30T12:49:55.179Z,101065.31
2022-07-30T12:52:31.773Z,101063.44
2022-07-30T12:55:09.643Z,101057.94
2022-07-30T12:58:07.030Z,101052.84
2022-07-30T13:00:52.725Z,101054.28
2022-07-30T13:03:24.527Z,101053.34
2022-07-30T13:05:55.347Z,101048.97
2022-07-30T13:08:57.640Z,101053.84
2022-07-30T13:11:48.660Z,101051.69
2022-07-30T13:14:17.485Z,101045.09
2022-07-30T13:16:45.668Z,101041.94
2022-07-30T13:19:13.203Z,101039.19
2022-07-30T13:21:49.883Z,101042.09
2022-07-30T13:24:18.974Z,101044.66
2022-07-30T13:26:47.036Z,101040.16
2022-07-30T13:29:14.484Z,101043.88
2022-07-30T13:31:42.594Z,101038.31
2022-07-30T13:34:12.129Z,101039.91
2022-07-30T13:36:39.762Z,101034.91
2022-07-30T13:39:07.080Z,101036.19
2022-07-30T13:41:36.220Z,101028.88
2022-07-30T13:44:04.533Z,101034.44
2022-07-30T13:46:31.755Z,101031.66
2022-07-30T13:48:59.325Z,101020.91
2022-07-30T13:51:26.572Z,101026.94
2022-07-30T13:53:56.998Z,101031.03
2022-07-30T13:56:24.152Z,101027.53
2022-07-30T13:58:51.309Z,101025.94
2022-07-30T14:01:19.804Z,101021.22
2022-07-30T14:03:50.516Z,101019.03
2022-07-30T14:06:19.551Z,101014.91
2022-07-30T14:08:48.918Z,101015.72
2022-07-30T14:11:17.943Z,101016.50
2022-07-30T14:13:46.000Z,101012.78
2022-07-30T14:16:42.348Z,101010.47
2022-07-30T14:19:01.364Z,101006.13
2022-07-30T14:21:28.652Z,101008.34
2022-07-30T14:23:56.332Z,101006.97
2022-07-30T14:26:23.464Z,101011.31
2022-07-30T14:28:51.007Z,101004.59
2022-07-30T14:31:18.139Z,100998.31
2022-07-30T14:33:45.339Z,101005.75
2022-07-30T14:36:12.851Z,101003.28
2022-07-30T14:38:40.023Z,101003.22
2022-07-30T14:41:09.005Z,101007.81
2022-07-30T14:43:36.341Z,101007.50
2022-07-30T14:46:03.859Z,101004.84
2022-07-30T14:48:32.196Z,101002.81
2022-07-30T14:51:15.849Z,101005.16
2022-07-30T14:53:47.265Z,101000.28
2022-07-30T14:56:14.706Z,101001.44
2022-07-30T14:58:45.688Z,101006.00
2022-07-30T15:01:16.647Z,100995.72
2022-07-30T15:03:45.874Z,101003.84
2022-07-30T15:06:15.170Z,101003.53
2022-07-30T15:08:43.243Z,101006.78
2022-07-30T15:11:10.321Z,101010.69
2022-07-30T15:13:49.733Z,101012.66
2022-07-30T15:16:19.101Z,101010.59
2022-07-30T15:18:46.464Z,101013.41
2022-07-30T15:21:13.771Z,101007.19
2022-07-30T15:23:41.016Z,101007.06
2022-07-30T15:26:08.411Z,101006.56
2022-07-30T15:28:36.930Z,101009.69
2022-07-30T15:31:04.719Z,100994.03
2022-07-30T15:33:36.649Z,101000.09
2022-07-30T15:36:04.604Z,100997.03
2022-07-30T15:38:31.805Z,101004.63
2022-07-30T15:41:01.785Z,100997.44
2022-07-30T15:43:29.058Z,100998.59
2022-07-30T15:45:56.707Z,100999.81
2022-07-30T15:48:27.844Z,101005.69
2022-07-30T15:51:02.796Z,100996.75
2022-07-30T15:53:31.759Z,100992.50
2022-07-30T15:56:00.470Z,101003.19
2022-07-30T15:58:28.098Z,100992.91
2022-07-30T16:00:55.377Z,100999.97
2022-07-30T16:03:22.804Z,101003.31
2022-07-30T16:05:51.306Z,100997.63
2022-07-30T16:08:21.554Z,101001.69
2022-07-30T16:10:49.857Z,101003.47
2022-07-30T16:13:17.314Z,100997.31
2022-07-30T16:15:45.436Z,100989.16
2022-07-30T16:18:12.771Z,100994.88
2022-07-30T16:20:40.088Z,100986.75
2022-07-30T16:23:12.675Z,100987.28
2022-07-30T16:25:42.421Z,100987.59
2022-07-30T16:28:09.565Z,100990.00
2022-07-30T16:30:50.570Z,100991.06
2022-07-30T16:33:20.861Z,100988.38
2022-07-30T16:35:56.757Z,100986.75
2022-07-30T16:38:24.106Z,100984.88
2022-07-30T16:40:54.496Z,100983.50
2022-07-30T16:43:21.552Z,100980.53
2022-07-30T16:45:49.161Z,100988.38
2022-07-30T16:48:16.767Z,100979.63
2022-07-30T16:50:44.727Z,100990.78
2022-07-30T16:53:14.358Z,100988.13
2022-07-30T16:55:43.488Z,100992.38
2022-07-30T16:58:11.441Z,100988.38
2022-07-30T17:00:38.947Z,100986.41
2022-07-30T17:03:12.018Z,100993.16
2022-07-30T17:05:47.641Z,100987.16
2022-07-30T17:08:15.106Z,100983.81
2022-07-30T17:10:46.197Z,100988.72
2022-07-30T17:13:15.269Z,100989.19
2022-07-30T17:15:43.155Z,100987.53
2022-07-30T17:18:12.942Z,100989.72
2022-07-30T17:20:40.173Z,100990.84
2022-07-30T17:23:08.063Z,100991.63
2022-07-30T17:25:35.382Z,100989.13
2022-07-30T17:28:02.601Z,100996.13
2022-07-30T17:30:32.892Z,100994.53
2022-07-30T17:33:01.084Z,100993.47
2022-07-30T17:35:28.357Z,100998.38
2022-07-30T17:37:55.663Z,100992.16
2022-07-30T17:40:29.254Z,100996.84
2022-07-30T17:43:06.094Z,100990.91
2022-07-30T17:45:36.293Z,100998.75
2022-07-30T17:48:05.343Z,101001.81
2022-07-30T17:50:35.787Z,101000.47
2022-07-30T17:53:05.928Z,101003.25
2022-07-30T17:55:36.466Z,101003.81
2022-07-30T17:58:05.247Z,100998.66
2022-07-30T18:00:34.869Z,101009.75
2022-07-30T18:03:03.792Z,101016.28
2022-07-30T18:05:32.051Z,101023.59
2022-07-30T18:07:59.403Z,101027.69
2022-07-30T18:10:26.541Z,101025.22
2022-07-30T18:12:53.699Z,101032.28
2022-07-30T18:15:21.055Z,101032.00
2022-07-30T18:17:48.754Z,101035.00
2022-07-30T18:20:16.192Z,101030.63
2022-07-30T18:25:18.031Z,101027.88
2022-07-30T18:27:48.033Z,101043.34
2022-07-30T18:30:15.567Z,101038.44
2022-07-30T18:32:43.349Z,101036.28
2022-07-30T18:35:14.539Z,101041.38
2022-07-30T18:37:45.654Z,101044.41
2022-07-30T18:40:18.561Z,101047.63
2022-07-30T18:42:49.589Z,101043.34
2022-07-30T18:45:16.968Z,101053.78
2022-07-30T18:47:45.714Z,101049.19
2022-07-30T18:50:15.741Z,101046.84
2022-07-30T18:52:43.353Z,101048.69
2022-07-30T18:55:12.445Z,101050.81
2022-07-30T18:57:41.247Z,101055.75
2022-07-30T19:00:35.119Z,101065.38
2022-07-30T19:03:02.938Z,101064.88
2022-07-30T19:05:31.310Z,101061.75
2022-07-30T19:07:59.142Z,101062.63
2022-07-30T19:10:27.703Z,101064.13
2022-07-30T19:12:56.397Z,101063.03
2022-07-30T19:15:26.720Z,101071.28
2022-07-30T19:17:58.229Z,101065.91
2022-07-30T19:20:26.700Z,101075.22
2022-07-30T19:23:06.941Z,101071.28
2022-07-30T19:25:54.517Z,101069.16
2022-07-30T19:28:24.706Z,101073.22
2022-07-30T19:30:51.744Z,101077.81
2022-07-30T19:33:18.818Z,101073.34
2022-07-30T19:35:48.316Z,101076.53
2022-07-30T19:38:22.051Z,101076.19
2022-07-30T19:40:51.845Z,101085.78
2022-07-30T19:43:24.010Z,101078.28
2022-07-30T19:45:51.812Z,101082.00
2022-07-30T19:48:29.397Z,101071.19
2022-07-30T19:51:00.784Z,101082.56
2022-07-30T19:53:31.609Z,101082.09
2022-07-30T19:56:03.440Z,101078.28
2022-07-30T19:58:32.229Z,101084.81
2022-07-30T20:01:00.314Z,101088.13
2022-07-30T20:03:31.608Z,101090.16
2022-07-30T20:06:00.384Z,101081.78
2022-07-30T20:08:28.515Z,101080.84
2022-07-30T20:10:57.572Z,101087.13
2022-07-30T20:13:44.686Z,101086.94
2022-07-30T20:16:15.905Z,101086.56
2022-07-30T20:18:46.173Z,101084.22
2022-07-30T20:21:16.626Z,101080.03
2022-07-30T20:23:45.080Z,101087.06
2022-07-30T20:26:17.123Z,101089.06
2022-07-30T20:28:52.622Z,101090.69
2022-07-30T20:31:21.179Z,101090.25
2022-07-30T20:33:51.929Z,101090.00
2022-07-30T20:36:20.028Z,101089.97
2022-07-30T20:38:50.706Z,101083.78
2022-07-30T20:41:20.917Z,101085.38
2022-07-30T20:43:52.501Z,101087.88
2022-07-30T20:46:39.782Z,101083.22
2022-07-30T20:49:07.489Z,101083.38
2022-07-30T20:51:37.944Z,101074.78
2022-07-30T20:54:29.459Z,101079.72
2022-07-30T20:56:57.477Z,101069.44
2022-07-30T20:59:26.071Z,101078.47
2022-07-30T21:02:00.084Z,101070.59
2022-07-30T21:04:28.290Z,101079.09
2022-07-30T21:06:55.449Z,101074.88
2022-07-30T21:09:52.440Z,101072.81
2022-07-30T21:12:19.824Z,101067.69
2022-07-30T21:15:00.322Z,101071.56
2022-07-30T21:17:28.311Z,101064.38
2022-07-30T21:19:55.465Z,101071.22
2022-07-30T21:22:22.827Z,101066.44
2022-07-30T21:24:51.180Z,101063.50
2022-07-30T21:27:19.004Z,101066.00
2022-07-30T21:29:46.451Z,101068.81
2022-07-30T21:32:14.878Z,101071.94
2022-07-30T21:34:46.621Z,101063.38
2022-07-30T21:37:15.633Z,101060.94
2022-07-30T21:39:46.357Z,101055.41
2022-07-30T21:42:14.420Z,101054.09
2022-07-30T21:44:41.568Z,101052.31
2022-07-30T21:47:10.290Z,101055.09
2022-07-30T21:49:39.092Z,101056.94
2022-07-30T21:52:08.844Z,101061.19
2022-07-30T21:54:48.375Z,101057.63
2022-07-30T21:57:26.301Z,101045.44
2022-07-30T21:59:58.233Z,101052.53
2022-07-30T22:02:25.587Z,101045.44
2022-07-30T22:04:55.138Z,101037.66
2022-07-30T22:07:22.429Z,101043.78
2022-07-30T22:09:49.646Z,101046.56
2022-07-30T22:12:18.013Z,101043.78
2022-07-30T22:14:49.470Z,101044.31
2022-07-30T22:17:23.633Z,101035.22
2022-07-30T22:20:08.871Z,101040.47
2022-07-30T22:22:39.921Z,101042.31
2022-07-30T22:25:09.874Z,101039.38
2022-07-30T22:27:56.756Z,101035.78
2022-07-30T22:30:27.360Z,101034.94
2022-07-30T22:33:30.515Z,101037.69
2022-07-30T22:35:59.151Z,101036.56
2022-07-30T22:38:27.281Z,101035.03
2022-07-30T22:40:54.554Z,101034.19
2022-07-30T22:43:24.358Z,101043.66
2022-07-30T22:46:00.594Z,101031.69
2022-07-30T22:48:27.823Z,101028.03
2022-07-30T22:50:58.744Z,101034.94
2022-07-30T22:53:56.813Z,101025.66
2022-07-30T22:56:16.412Z,101031.50
2022-07-30T22:58:44.345Z,101032.00
2022-07-30T23:01:11.445Z,101019.13
2022-07-30T23:03:38.548Z,101019.28
2022-07-30T23:06:06.536Z,101024.38
2022-07-30T23:08:41.747Z,101017.69
2022-07-30T23:11:09.502Z,101019.88
2022-07-30T23:13:38.661Z,101015.97
2022-07-30T23:16:06.827Z,101007.13
2022-07-30T23:18:37.376Z,101012.13
2022-07-30T23:21:05.006Z,101014.09
2022-07-30T23:23:33.799Z,101013.06
2022-07-30T23:26:05.201Z,101006.84
2022-07-30T23:28:32.863Z,101000.91
2022-07-30T23:31:00.303Z,101004.50
2022-07-30T23:33:27.492Z,101004.09
2022-07-30T23:35:54.809Z,100999.34
2022-07-30T23:38:22.339Z,101003.72
2022-07-30T23:40:49.453Z,100996.56
2022-07-30T23:43:17.207Z,100997.22
2022-07-30T23:45:44.598Z,100988.72
2022-07-30T23:48:12.128Z,100991.16
2022-07-30T23:50:39.176Z,100985.44
2022-07-30T23:53:06.455Z,100985.06
2022-07-30T23:55:33.611Z,100987.75
2022-07-30T23:58:04.789Z,100986.03
